Bridgewater, Massachusetts
Current Conditions -  °F | °C
As of 8:52 PM on Wednesday 17 Dec 2014 (Local Time) from KTAN Reporting Station
Overcast Overcast  
Wind Chill: 41°   Ceiling: 4100
Heat Index: 45°   Visibility: 10mi
Dew Point: 36°   Wind: 8mph
Humidity: 71%   Direction: 270°W
Pressure: 29.74"   Gusts: NA
Location:  41.99°N, 70.98°W
Report Text: KTAN 180152Z AUTO 27007KT 10SM BKN041 OVC070 07/02 A2974 RMK AO2 SLP071 T00720022
Loading
Personal Weather Stations






























Interactive Weather Map New forecast layout! Learn more

10-Day Weather Forecast

Advertisements
Track Severe Weather on mobile